Time;durP1;ratioP1;P1;durP2;ratioP2;P2;SDS_P1;SDS_P2;PMS_P1;PMS_P2;Temp;Humidity;BMP_temperature;BMP_pressure;BME280_temperature;BME280_humidity;BME280_pressure;Samples;Min_cycle;Max_cycle;Signal;HPM_P1;HPM_P2
2021/10/23 00:04:06;;;;;;;7.17;2.02;;;;;;;8.30;53.84;99012.32;4005787;88;21065;-81
2021/10/23 00:10:10;;;;;;;9.48;1.62;;;;;;;8.27;53.89;99011.67;3995813;87;21119;-81
2021/10/23 00:16:11;;;;;;;4.65;1.85;;;;;;;8.26;53.89;99009.52;4000496;88;21152;-81
2021/10/23 00:22:12;;;;;;;7.42;2.00;;;;;;;8.28;54.22;99022.80;3954909;88;21058;-80
2021/10/23 00:28:14;;;;;;;6.50;2.40;;;;;;;8.25;54.06;99027.60;3994333;87;21110;-81
2021/10/23 00:34:15;;;;;;;10.75;1.85;;;;;;;8.24;54.36;99039.67;3883640;90;21082;-81
2021/10/23 00:40:16;;;;;;;6.40;1.92;;;;;;;8.29;54.17;99044.81;3943737;89;21066;-81
2021/10/23 00:46:17;;;;;;;7.80;2.22;;;;;;;8.32;54.40;99044.09;3946258;89;20993;-80
2021/10/23 00:52:26;;;;;;;6.92;2.10;;;;;;;8.34;54.47;99043.17;3958775;88;21092;-83
2021/10/23 00:58:38;;;;;;;7.62;2.05;;;;;;;8.36;54.64;99039.52;3890768;90;21053;-81
2021/10/23 01:04:41;;;;;;;5.65;1.67;;;;;;;8.34;54.92;99055.45;3887991;90;21580;-81
2021/10/23 01:10:43;;;;;;;7.15;1.37;;;;;;;8.26;55.11;99072.23;3906397;90;21071;-81
2021/10/23 01:16:53;;;;;;;5.72;1.60;;;;;;;8.26;55.15;99084.52;3885861;90;22273;-82
2021/10/23 01:22:57;;;;;;;6.78;1.57;;;;;;;8.23;55.16;99092.05;3956472;88;21071;-80
2021/10/23 01:28:59;;;;;;;7.05;1.67;;;;;;;8.22;55.35;99095.90;3900187;89;21072;-80
2021/10/23 01:35:01;;;;;;;5.62;1.95;;;;;;;8.20;55.72;99102.84;3911522;89;21161;-81
2021/10/23 01:41:03;;;;;;;5.37;1.67;;;;;;;8.14;55.71;99107.00;3911918;89;21099;-81
2021/10/23 01:47:06;;;;;;;6.03;1.70;;;;;;;8.05;55.90;99131.71;3992350;88;21042;-81
2021/10/23 01:53:07;;;;;;;6.60;1.45;;;;;;;8.06;55.99;99133.88;3949534;89;21074;-80
2021/10/23 01:59:10;;;;;;;4.65;1.57;;;;;;;8.02;56.31;99144.70;3953621;89;21023;-83
2021/10/23 02:05:11;;;;;;;6.37;2.30;;;;;;;7.91;56.57;99151.27;3950461;89;21396;-81
2021/10/23 02:11:12;;;;;;;8.78;2.08;;;;;;;7.79;56.66;99158.19;4007855;88;21077;-81
2021/10/23 02:17:14;;;;;;;9.93;1.75;;;;;;;7.68;57.03;99167.23;4003299;87;21530;-80
2021/10/23 02:23:15;;;;;;;7.67;2.15;;;;;;;7.54;57.28;99189.47;3907601;89;21150;-82
2021/10/23 02:29:16;;;;;;;6.30;1.72;;;;;;;7.50;58.11;99176.90;3978931;87;21060;-80
2021/10/23 02:35:19;;;;;;;7.45;1.77;;;;;;;7.52;58.10;99199.11;3898761;90;21095;-80
2021/10/23 02:41:24;;;;;;;8.20;2.15;;;;;;;7.56;58.46;99204.87;3903746;90;21115;-81
2021/10/23 02:47:26;;;;;;;9.83;2.22;;;;;;;7.58;58.70;99210.00;3956219;88;21083;-80
2021/10/23 02:53:27;;;;;;;5.70;2.42;;;;;;;7.60;58.90;99227.56;3974859;88;20999;-80
2021/10/23 02:59:28;;;;;;;9.25;1.98;;;;;;;7.58;59.27;99231.79;3904439;89;21067;-80
2021/10/23 03:05:30;;;;;;;5.72;1.87;;;;;;;7.51;59.51;99256.91;3901813;90;21127;-80
2021/10/23 03:11:31;;;;;;;3.77;2.08;;;;;;;7.41;59.66;99254.67;3901810;90;21055;-81
2021/10/23 03:17:33;;;;;;;3.98;1.85;;;;;;;7.30;59.83;99271.84;3897978;90;21583;-80
2021/10/23 03:23:34;;;;;;;8.43;2.00;;;;;;;7.20;60.30;99267.71;3975173;88;21072;-80
2021/10/23 03:29:36;;;;;;;5.40;2.30;;;;;;;7.10;60.50;99274.19;3986066;88;21566;-80
2021/10/23 03:35:37;;;;;;;5.40;1.57;;;;;;;7.00;60.93;99277.41;3997657;88;21087;-80
2021/10/23 03:41:40;;;;;;;8.03;2.05;;;;;;;6.92;61.21;99293.30;3966669;88;21043;-80
2021/10/23 03:47:41;;;;;;;6.87;1.62;;;;;;;6.89;61.50;99298.07;4001168;88;21559;-81
2021/10/23 03:53:43;;;;;;;6.08;1.35;;;;;;;6.81;61.81;99301.70;3973331;88;21177;-81
2021/10/23 03:59:45;;;;;;;6.42;1.47;;;;;;;6.74;62.14;99314.52;4000217;88;21039;-81
2021/10/23 04:05:47;;;;;;;6.30;1.67;;;;;;;6.66;62.47;99315.43;3983808;87;21074;-81
2021/10/23 04:11:48;;;;;;;6.47;2.22;;;;;;;6.58;62.83;99329.94;3973600;89;21031;-80
2021/10/23 04:17:50;;;;;;;6.12;1.98;;;;;;;6.49;62.96;99334.70;3965037;88;21020;-81
2021/10/23 04:23:52;;;;;;;3.92;1.60;;;;;;;6.42;63.28;99340.48;3995417;88;21650;-81
2021/10/23 04:29:54;;;;;;;5.42;1.62;;;;;;;6.35;63.33;99343.20;3977150;88;21069;-80
2021/10/23 04:35:55;;;;;;;7.62;1.77;;;;;;;6.33;63.55;99345.45;3869481;88;9999773;-83
2021/10/23 04:41:57;;;;;;;7.87;1.57;;;;;;;6.30;63.65;99352.13;3923883;89;21075;-81
2021/10/23 04:47:59;;;;;;;7.15;1.85;;;;;;;6.28;63.99;99361.19;4044757;86;21030;-81
2021/10/23 04:54:00;;;;;;;4.85;2.27;;;;;;;6.26;64.40;99367.55;4030983;86;21694;-80
2021/10/23 05:00:03;;;;;;;5.33;1.60;;;;;;;6.22;64.41;99378.84;3933851;89;21536;-81
2021/10/23 05:06:04;;;;;;;6.67;2.30;;;;;;;6.19;64.72;99388.48;4043507;87;21185;-81
2021/10/23 05:12:06;;;;;;;7.87;2.58;;;;;;;6.12;64.63;99388.80;4030112;86;21031;-82
2021/10/23 05:18:07;;;;;;;7.50;2.70;;;;;;;6.09;64.74;99403.07;3994857;88;21069;-82
2021/10/23 05:24:08;;;;;;;10.20;2.90;;;;;;;6.07;64.96;99412.92;3982641;87;21055;-82
2021/10/23 05:30:11;;;;;;;7.95;2.67;;;;;;;6.08;65.46;99418.58;3993984;87;21557;-80
2021/10/23 05:36:12;;;;;;;9.15;2.65;;;;;;;6.08;65.62;99428.64;4021033;86;21133;-81
2021/10/23 05:42:13;;;;;;;7.10;2.67;;;;;;;6.07;65.77;99422.98;4037760;87;21020;-81
2021/10/23 05:48:15;;;;;;;6.70;2.30;;;;;;;6.07;65.78;99424.34;4029503;86;21035;-80
2021/10/23 05:54:17;;;;;;;7.90;2.00;;;;;;;6.08;65.88;99435.44;4046674;86;21188;-80
2021/10/23 06:00:18;;;;;;;7.90;2.22;;;;;;;6.13;66.06;99441.47;4034188;86;21872;-80
2021/10/23 06:06:20;;;;;;;7.85;2.42;;;;;;;6.21;66.07;99447.39;4049370;86;21073;-81
2021/10/23 06:12:22;;;;;;;6.40;2.30;;;;;;;6.32;66.29;99462.16;4017945;87;21115;-80
2021/10/23 06:18:23;;;;;;;7.65;2.05;;;;;;;6.43;66.11;99463.08;3998800;86;21043;-81
2021/10/23 06:24:25;;;;;;;7.53;2.45;;;;;;;6.52;66.21;99464.58;4016891;87;21084;-82
2021/10/23 06:30:26;;;;;;;12.07;2.62;;;;;;;6.61;66.26;99484.31;4038077;86;21086;-81
2021/10/23 06:36:27;;;;;;;9.35;2.87;;;;;;;6.77;66.49;99489.89;4033503;87;21049;-81
2021/10/23 06:42:30;;;;;;;7.83;2.60;;;;;;;7.00;66.50;99503.33;4016260;87;21075;-80
2021/10/23 06:48:32;;;;;;;9.30;2.35;;;;;;;7.07;66.06;99505.71;4020726;87;21076;-81
2021/10/23 06:54:33;;;;;;;11.03;1.70;;;;;;;7.21;66.01;99518.42;4027802;87;21093;-82
2021/10/23 07:00:35;;;;;;;5.05;1.70;;;;;;;7.40;65.83;99516.48;4052191;86;21030;-81
2021/10/23 07:06:36;;;;;;;7.35;1.80;;;;;;;7.71;65.59;99522.94;4021107;87;21567;-80
2021/10/23 07:12:38;;;;;;;10.15;2.37;;;;;;;8.16;65.37;99532.84;4023624;86;21030;-81
2021/10/23 07:18:40;;;;;;;7.62;1.98;;;;;;;8.63;64.86;99526.40;4022090;86;21049;-81
2021/10/23 07:24:41;;;;;;;12.05;2.35;;;;;;;8.74;64.42;99537.63;4006147;87;21097;-81
2021/10/23 07:30:42;;;;;;;8.43;1.90;;;;;;;9.08;64.06;99526.03;3934737;89;21076;-82
2021/10/23 07:36:44;;;;;;;3.72;1.67;;;;;;;9.57;62.87;99539.52;4005346;87;21562;-81
2021/10/23 07:42:45;;;;;;;4.12;1.62;;;;;;;9.81;62.64;99546.71;3938389;89;21086;-81
2021/10/23 07:48:47;;;;;;;13.13;1.80;;;;;;;10.16;62.30;99564.75;4003283;87;21049;-82
2021/10/23 07:54:48;;;;;;;10.23;2.17;;;;;;;10.35;61.88;99548.33;4009147;87;21049;-82
2021/10/23 08:00:50;;;;;;;9.05;1.60;;;;;;;10.10;60.06;99547.60;4005631;87;21556;-81
2021/10/23 08:06:52;;;;;;;10.13;1.85;;;;;;;10.25;60.98;99565.33;4005464;87;21131;-82
2021/10/23 08:12:55;;;;;;;7.42;1.62;;;;;;;10.94;59.20;99572.58;4004640;87;21081;-82
2021/10/23 08:18:56;;;;;;;6.45;1.77;;;;;;;11.44;59.78;99576.98;4003778;87;21418;-82
2021/10/23 08:24:58;;;;;;;5.95;2.10;;;;;;;12.25;59.19;99583.15;4008151;87;21522;-82
2021/10/23 08:31:00;;;;;;;6.08;1.50;;;;;;;13.06;58.59;99599.30;3924212;89;22074;-82
2021/10/23 08:37:03;;;;;;;4.92;1.40;;;;;;;13.76;55.62;99591.12;4047199;86;21090;-82
2021/10/23 08:43:08;;;;;;;4.85;1.32;;;;;;;14.06;53.92;99591.70;3987524;88;21054;-82
2021/10/23 08:49:08;;;;;;;7.87;1.92;;;;;;;13.61;53.05;99599.61;3986306;88;21078;-84
2021/10/23 08:55:09;;;;;;;14.35;2.55;;;;;;;12.61;54.15;99622.27;3986943;88;21132;-82
2021/10/23 09:01:14;;;;;;;6.85;1.60;;;;;;;12.93;54.50;99619.91;3986348;88;21061;-82
2021/10/23 09:07:16;;;;;;;12.20;2.10;;;;;;;12.34;53.76;99622.89;3993972;88;21062;-82
2021/10/23 09:13:33;;;;;;;8.38;1.65;;;;;;;11.70;53.93;99623.09;3868340;88;9999580;-82
2021/10/23 09:19:48;;;;;;;9.58;2.33;;;;;;;11.29;53.75;99635.46;3998154;88;22020;-82
2021/10/23 09:25:51;;;;;;;9.68;2.02;;;;;;;10.96;54.39;99631.31;3990071;88;21061;-82
2021/10/23 09:31:54;;;;;;;6.28;1.98;;;;;;;10.91;54.30;99637.67;4016429;87;21150;-82
2021/10/23 09:37:59;;;;;;;10.80;1.67;;;;;;;10.74;54.42;99634.01;3924513;89;21667;-81
2021/10/23 09:44:16;;;;;;;10.75;2.30;;;;;;;10.65;54.42;99643.79;4001499;87;21081;-82
2021/10/23 09:50:33;;;;;;;6.65;2.00;;;;;;;10.56;54.61;99652.80;4005527;87;21053;-82
2021/10/23 09:56:38;;;;;;;6.33;2.58;;;;;;;10.73;54.84;99658.41;4031591;87;21512;-82
2021/10/23 10:02:41;;;;;;;10.43;3.00;;;;;;;10.65;54.63;99673.91;4026542;87;21647;-82
2021/10/23 10:08:43;;;;;;;11.73;2.30;;;;;;;10.48;54.62;99674.88;3940458;89;21128;-81
2021/10/23 10:14:46;;;;;;;7.78;2.22;;;;;;;10.39;54.39;99679.20;3939286;89;21032;-83
2021/10/23 10:20:52;;;;;;;18.07;2.60;;;;;;;10.33;55.22;99672.42;4015982;87;21161;-81
2021/10/23 10:27:20;;;;;;;7.67;2.47;;;;;;;10.54;54.96;99672.11;3942827;89;21106;-82
2021/10/23 10:33:55;;;;;;;9.20;2.20;;;;;;;10.60;55.03;99669.30;3998621;87;21096;-83
2021/10/23 10:46:48;;;;;;;7.22;1.95;;;;;;;10.40;55.07;99672.57;3930549;89;21094;-82
2021/10/23 10:53:41;;;;;;;11.03;2.85;;;;;;;10.40;54.95;99678.61;3999394;87;21174;-84
2021/10/23 11:00:15;;;;;;;9.68;3.20;;;;;;;10.45;55.38;99668.76;3946728;88;21210;-81
2021/10/23 11:06:44;;;;;;;8.15;2.50;;;;;;;11.23;54.39;99675.29;3930182;89;21161;-83
2021/10/23 11:12:45;;;;;;;;;;;;;;;11.54;53.61;99680.56;3934544;89;21136;-82
2021/10/23 11:18:58;;;;;;;12.37;2.67;;;;;;;11.32;54.22;99695.84;3929708;89;20216;-84
2021/10/23 11:25:09;;;;;;;11.50;3.20;;;;;;;11.02;54.44;99696.98;3937070;89;21138;-83
2021/10/23 11:31:20;;;;;;;8.23;3.77;;;;;;;10.62;54.54;99690.25;4025753;87;21072;-83
2021/10/23 11:37:25;;;;;;;13.03;4.78;;;;;;;10.34;55.10;99681.41;4029642;86;21150;-80
2021/10/23 11:43:35;;;;;;;14.80;4.17;;;;;;;10.15;55.59;99687.63;4042910;86;20996;-82
2021/10/23 11:49:36;;;;;;;15.48;5.08;;;;;;;9.91;56.04;99689.74;4034528;86;21035;-81
2021/10/23 11:55:41;;;;;;;11.97;4.08;;;;;;;9.69;57.02;99700.73;4025619;86;21087;-82
2021/10/23 12:01:43;;;;;;;10.88;3.30;;;;;;;9.28;58.15;99690.25;3918615;89;21539;-82
2021/10/23 12:07:44;;;;;;;12.23;3.85;;;;;;;9.04;59.97;99691.16;4007999;87;21072;-82
2021/10/23 12:14:08;;;;;;;11.57;4.15;;;;;;;9.00;60.17;99686.74;3885538;87;9999742;-82
2021/10/23 12:20:15;;;;;;;13.03;4.08;;;;;;;9.11;60.52;99696.03;4050531;87;21622;-82
2021/10/23 12:26:28;;;;;;;13.47;4.77;;;;;;;9.18;60.86;99706.58;3936010;89;21695;-82
2021/10/23 12:32:45;;;;;;;12.37;4.25;;;;;;;9.43;61.10;99690.28;3998282;87;21144;-82
2021/10/23 12:38:49;;;;;;;10.00;3.65;;;;;;;9.73;61.07;99683.02;3919784;89;21762;-81
2021/10/23 12:51:49;;;;;;;10.72;3.83;;;;;;;10.07;61.02;99674.13;3754385;89;21041;-80
2021/10/23 12:57:51;;;;;;;12.33;3.72;;;;;;;9.99;60.48;99686.81;4050121;87;21135;-80
2021/10/23 13:03:56;;;;;;;17.75;5.00;;;;;;;9.73;60.35;99717.20;3992103;88;21094;-81
2021/10/23 13:10:37;;;;;;;12.35;4.30;;;;;;;9.34;60.86;99734.74;3993471;88;21113;-82
2021/10/23 13:16:38;;;;;;;12.10;3.20;;;;;;;8.70;62.13;99771.45;3993997;87;21121;-82
2021/10/23 13:22:42;;;;;;;9.83;3.95;;;;;;;8.09;63.58;99753.48;3992665;88;21542;-81
2021/10/23 13:28:44;;;;;;;7.08;2.90;;;;;;;7.91;64.15;99747.44;3980087;88;21082;-82
2021/10/23 13:34:45;;;;;;;8.88;3.10;;;;;;;7.70;65.28;99742.09;3985670;88;21134;-82
2021/10/23 13:40:46;;;;;;;6.30;3.15;;;;;;;7.70;66.31;99765.81;3933167;89;21092;-83
2021/10/23 13:46:48;;;;;;;15.80;4.20;;;;;;;7.63;70.07;99752.73;3999395;88;21132;-81
2021/10/23 13:52:49;;;;;;;9.98;4.58;;;;;;;7.43;68.97;99748.15;4044205;87;21085;-82
2021/10/23 13:58:51;;;;;;;12.53;4.70;;;;;;;7.45;70.10;99742.36;3985394;88;21401;-81
2021/10/23 14:04:52;;;;;;;8.85;4.10;;;;;;;7.58;70.18;99740.69;3996714;87;21094;-81
2021/10/23 14:10:54;;;;;;;15.00;4.75;;;;;;;7.65;70.72;99751.84;4002482;87;21050;-84
2021/10/23 14:16:55;;;;;;;11.35;4.90;;;;;;;7.68;71.15;99772.16;3982824;88;21046;-80
2021/10/23 14:22:56;;;;;;;12.47;4.45;;;;;;;7.65;71.59;99779.09;3999567;88;21589;-82
2021/10/23 14:28:58;;;;;;;12.82;4.33;;;;;;;7.55;73.61;99756.91;3996251;88;21069;-81
2021/10/23 14:34:59;;;;;;;9.13;3.65;;;;;;;7.44;72.90;99774.80;4039417;87;21084;-82
2021/10/23 14:41:01;;;;;;;6.75;2.95;;;;;;;7.40;72.81;99799.22;3992000;88;21071;-81
2021/10/23 14:47:03;;;;;;;9.60;3.60;;;;;;;7.35;72.63;99808.95;3999610;88;21005;-82
2021/10/23 14:53:04;;;;;;;9.65;3.98;;;;;;;7.30;72.82;99820.59;4040828;87;21047;-83
2021/10/23 14:59:05;;;;;;;7.17;3.95;;;;;;;7.16;72.88;99828.23;3984217;88;21121;-82
2021/10/23 15:05:08;;;;;;;13.50;4.37;;;;;;;7.11;72.81;99847.52;3997352;88;21063;-81
2021/10/23 15:11:09;;;;;;;11.55;5.05;;;;;;;7.10;72.93;99838.55;3992041;88;20993;-81
2021/10/23 15:17:10;;;;;;;10.25;4.47;;;;;;;7.08;73.19;99849.55;4025912;88;21060;-80
2021/10/23 15:23:12;;;;;;;12.10;4.40;;;;;;;7.04;74.02;99860.84;4038520;86;20960;-81
2021/10/23 15:29:13;;;;;;;11.22;4.10;;;;;;;6.91;73.43;99868.13;3817888;89;10000230;-81
2021/10/23 15:35:18;;;;;;;11.73;4.35;;;;;;;6.86;73.77;99888.72;4004622;87;21059;-81
2021/10/23 15:47:20;;;;;;;15.43;4.87;;;;;;;6.83;74.00;99905.72;3966054;89;21596;-82
2021/10/23 15:53:22;;;;;;;13.98;5.42;;;;;;;6.78;74.36;99915.42;3964685;89;21091;-81
2021/10/23 15:59:23;;;;;;;18.82;7.67;;;;;;;6.60;74.45;99919.35;3976871;89;22103;-81
2021/10/23 16:05:24;;;;;;;19.55;7.35;;;;;;;6.49;74.80;99930.36;3972781;88;21084;-82
2021/10/23 16:11:26;;;;;;;19.05;8.00;;;;;;;6.37;75.22;99935.68;4007749;88;21630;-82
2021/10/23 16:17:28;;;;;;;21.90;8.93;;;;;;;6.37;75.15;99945.98;3976997;88;21964;-82
2021/10/23 16:23:29;;;;;;;32.33;15.28;;;;;;;6.38;75.48;99954.39;4007023;88;21100;-83
2021/10/23 16:29:31;;;;;;;31.60;13.08;;;;;;;6.45;77.26;99997.97;3993227;88;22316;-82
2021/10/23 16:35:32;;;;;;;22.77;9.10;;;;;;;6.30;76.05;100016.39;3980616;87;21512;-81
2021/10/23 16:41:35;;;;;;;25.90;11.03;;;;;;;6.33;76.09;100006.23;4002124;86;21049;-82
2021/10/23 16:47:37;;;;;;;25.10;10.35;;;;;;;6.46;76.19;100010.44;4001650;87;21613;-82
2021/10/23 16:53:38;;;;;;;17.27;9.13;;;;;;;6.35;78.51;100019.50;4005403;87;21144;-82
2021/10/23 16:59:40;;;;;;;20.77;9.00;;;;;;;6.22;77.10;100014.48;4035360;86;21027;-82
2021/10/23 17:05:41;;;;;;;39.58;16.48;;;;;;;6.19;77.20;100019.75;3941582;89;21138;-82
2021/10/23 17:11:43;;;;;;;34.90;15.25;;;;;;;6.12;77.30;100022.17;3938141;89;21016;-82
2021/10/23 17:17:46;;;;;;;33.23;13.75;;;;;;;5.95;78.39;100022.17;3940087;89;21134;-82
2021/10/23 17:23:48;;;;;;;28.67;13.93;;;;;;;5.86;77.78;100039.02;3942576;89;21093;-81
2021/10/23 17:29:50;;;;;;;43.98;16.75;;;;;;;5.80;77.99;100053.84;3945691;89;21106;-81
2021/10/23 17:35:51;;;;;;;36.88;17.30;;;;;;;5.66;77.76;100064.05;3932116;89;20997;-82
2021/10/23 17:41:53;;;;;;;48.00;20.17;;;;;;;5.49;78.98;100068.08;4035083;86;21012;-81
2021/10/23 17:47:55;;;;;;;46.28;19.85;;;;;;;5.43;79.42;100078.31;4049700;86;21007;-81
2021/10/23 17:53:57;;;;;;;44.65;18.42;;;;;;;5.50;79.37;100081.89;3978330;88;21595;-81
2021/10/23 17:59:58;;;;;;;37.73;17.02;;;;;;;5.38;80.37;100086.59;3983758;87;21027;-82
2021/10/23 18:06:00;;;;;;;35.25;16.37;;;;;;;5.31;80.06;100088.94;3992608;88;21662;-82
2021/10/23 18:12:01;;;;;;;33.85;15.40;;;;;;;5.31;79.80;100087.59;3977345;87;21178;-81
2021/10/23 18:18:13;;;;;;;33.05;15.32;;;;;;;5.30;80.23;100087.90;3978880;87;21105;-82
2021/10/23 18:24:16;;;;;;;37.33;17.10;;;;;;;5.18;80.35;100102.08;3972918;88;21553;-81
2021/10/23 18:30:18;;;;;;;36.38;15.13;;;;;;;5.16;80.06;100109.73;3975498;88;21079;-83
2021/10/23 18:36:19;;;;;;;35.40;16.60;;;;;;;5.11;80.00;100113.12;3984615;88;21069;-81
2021/10/23 18:42:22;;;;;;;48.55;19.70;;;;;;;5.00;80.46;100118.02;3983256;88;21058;-80
2021/10/23 18:48:24;;;;;;;37.53;15.03;;;;;;;5.07;80.45;100117.03;3989872;88;21038;-80
2021/10/23 18:54:27;;;;;;;30.65;15.48;;;;;;;5.00;81.03;100121.28;3993123;88;21070;-81
2021/10/23 19:00:29;;;;;;;42.55;19.65;;;;;;;4.84;81.26;100123.58;3998130;88;21613;-82
2021/10/23 19:06:30;;;;;;;45.33;19.32;;;;;;;4.84;80.94;100140.67;3981435;88;21087;-81
2021/10/23 19:12:36;;;;;;;30.45;14.23;;;;;;;4.87;80.70;100141.17;3997654;87;21102;-81
2021/10/23 19:18:39;;;;;;;37.23;17.03;;;;;;;4.87;80.79;100157.45;3991058;88;21409;-80
2021/10/23 19:24:40;;;;;;;33.65;14.33;;;;;;;4.65;81.35;100165.05;3989531;88;21062;-81
2021/10/23 19:30:41;;;;;;;28.25;14.05;;;;;;;4.62;81.40;100171.86;3989354;88;21130;-81
2021/10/23 19:36:43;;;;;;;36.65;17.55;;;;;;;4.58;81.66;100179.02;3968937;88;21072;-80
2021/10/23 19:42:45;;;;;;;38.50;18.17;;;;;;;4.75;81.68;100189.20;4006519;88;21388;-81
2021/10/23 19:48:46;;;;;;;35.55;14.35;;;;;;;4.91;81.65;100199.94;4009187;88;21511;-80
2021/10/23 19:54:49;;;;;;;30.37;13.70;;;;;;;4.82;82.02;100202.57;4027683;88;21051;-81
2021/10/23 20:00:52;;;;;;;41.37;16.60;;;;;;;4.77;82.47;100210.85;4021233;88;21601;-81
2021/10/23 20:06:53;;;;;;;35.80;16.30;;;;;;;4.79;81.86;100208.61;4023250;88;21007;-81
2021/10/23 20:12:55;;;;;;;33.55;14.33;;;;;;;4.88;81.88;100224.16;4029433;88;21091;-81
2021/10/23 20:18:56;;;;;;;37.38;16.02;;;;;;;4.80;81.85;100229.77;4019860;88;21072;-81
2021/10/23 20:24:58;;;;;;;39.58;16.27;;;;;;;4.83;81.78;100235.94;4018863;88;21008;-82
2021/10/23 20:31:00;;;;;;;32.73;14.47;;;;;;;4.71;81.46;100246.53;3991861;88;21087;-81
2021/10/23 20:37:02;;;;;;;34.27;14.53;;;;;;;4.68;81.53;100248.51;4003276;87;22303;-81
2021/10/23 20:43:04;;;;;;;31.45;14.60;;;;;;;4.59;81.86;100247.06;4003542;87;21502;-80
2021/10/23 20:49:07;;;;;;;34.05;14.23;;;;;;;4.61;82.41;100258.41;4007362;87;21017;-80
2021/10/23 20:55:11;;;;;;;30.55;14.13;;;;;;;4.70;82.58;100264.72;4053809;86;21089;-80
2021/10/23 21:01:12;;;;;;;33.53;13.78;;;;;;;4.76;82.47;100264.06;3983430;88;21127;-81
2021/10/23 21:07:14;;;;;;;31.40;14.68;;;;;;;4.78;82.93;100263.99;4003481;87;21108;-81
2021/10/23 21:13:15;;;;;;;34.03;14.28;;;;;;;4.73;82.55;100283.63;3945269;89;21061;-81
2021/10/23 21:19:16;;;;;;;34.55;13.48;;;;;;;4.82;82.50;100292.67;3943247;89;21544;-81
2021/10/23 21:25:18;;;;;;;34.53;13.28;;;;;;;4.82;82.69;100296.75;3944020;89;22032;-81
2021/10/23 21:31:20;;;;;;;29.32;13.28;;;;;;;4.86;82.60;100299.08;4002181;87;21560;-81
2021/10/23 21:37:22;;;;;;;32.28;13.40;;;;;;;4.84;82.70;100304.81;4028763;87;21065;-80
2021/10/23 21:43:24;;;;;;;38.92;14.45;;;;;;;4.91;82.71;100313.90;4032001;87;21076;-81
2021/10/23 21:49:25;;;;;;;33.42;14.85;;;;;;;5.04;82.70;100322.56;4035165;87;21048;-81
2021/10/23 21:55:27;;;;;;;32.78;14.75;;;;;;;5.10;83.01;100317.27;4032361;87;21172;-81
2021/10/23 22:01:29;;;;;;;35.92;13.48;;;;;;;5.20;83.18;100327.86;4031950;87;21597;-81
2021/10/23 22:07:31;;;;;;;42.10;13.72;;;;;;;5.33;82.91;100333.81;4031170;87;21020;-80
2021/10/23 22:13:32;;;;;;;33.30;12.75;;;;;;;5.43;82.80;100335.48;4029912;87;21033;-81
2021/10/23 22:19:34;;;;;;;29.23;12.70;;;;;;;5.49;82.56;100337.77;4032318;86;21084;-80
2021/10/23 22:25:35;;;;;;;33.53;12.80;;;;;;;5.54;82.42;100339.55;4030988;87;21069;-81
2021/10/23 22:31:36;;;;;;;32.17;12.47;;;;;;;5.58;82.40;100339.17;4028896;87;21590;-81
2021/10/23 22:37:37;;;;;;;32.13;12.95;;;;;;;5.63;82.25;100340.41;3968851;88;21120;-80
2021/10/23 22:43:39;;;;;;;29.05;12.35;;;;;;;5.63;82.14;100350.73;3971492;88;21581;-81
2021/10/23 22:49:40;;;;;;;34.70;14.70;;;;;;;5.61;82.10;100350.23;4072819;87;21094;-79
2021/10/23 22:55:41;;;;;;;32.63;12.63;;;;;;;5.61;82.18;100355.66;3971145;88;21061;-83
2021/10/23 23:01:42;;;;;;;30.72;13.20;;;;;;;5.64;82.23;100355.59;3974334;88;21033;-80
2021/10/23 23:07:44;;;;;;;33.40;14.55;;;;;;;5.68;82.12;100366.91;4031265;87;21036;-81
2021/10/23 23:13:45;;;;;;;38.38;16.00;;;;;;;5.67;82.02;100368.58;4031931;87;21073;-82
2021/10/23 23:19:47;;;;;;;32.53;13.25;;;;;;;5.62;82.04;100361.91;4032740;87;21025;-81
2021/10/23 23:25:49;;;;;;;33.50;14.93;;;;;;;5.53;82.13;100370.55;4034648;87;20994;-81
2021/10/23 23:31:50;;;;;;;31.93;14.43;;;;;;;5.38;82.20;100368.18;4031654;87;21069;-80
2021/10/23 23:37:51;;;;;;;36.10;14.45;;;;;;;5.33;82.37;100369.11;4007096;87;21644;-81
2021/10/23 23:43:54;;;;;;;35.23;15.13;;;;;;;5.27;82.32;100373.59;4005881;87;21069;-81
2021/10/23 23:49:56;;;;;;;38.88;15.28;;;;;;;5.12;82.21;100369.89;4000351;87;21061;-81
2021/10/23 23:55:57;;;;;;;29.92;14.35;;;;;;;5.05;82.21;100381.70;4007554;87;21566;-81
